Portada
METAR-TAF:

METAR-TAF

Aeropuertos :

Aeropuerto Internacional de Chengdú-Shuangliu

Chengdu, China

latitud: 30-40N, longitud: 104-01E, altitud: 508 m

Observación

El informe se hizo hace 30 minutos, a las 16:00 UTC
Viento 2 kt con dirección variable
Temperatura 10°C
Humedad 87%
Presión 1025 hPa
Visibilidad: 6000 m
Nubes dispersas a una altura de 4000 ft

METAR: ZUUU 201600Z VRB01MPS 6000 SCT040 10/08 Q1025 NOSIG

Hora: 00:30 (16:30 UTC)

Pronóstico

El informe se hizo hace 8 horas y 26 minutos, a las 08:04 UTC
Pronóstico válido del 20 a las 12 UTC al 21 a las 12 UTC
Viento 6 kt del norte-noreste
Visibilidad: 6000 m
Nubes dispersas a una altura de 5000 ft

TAF: ZUUU 200804Z 2012/2112 02003MPS 6000 SCT050 TX12/2107Z TN06/2023Z

Observaciones y pronósticos meteorológicos de más de 4000 aeropuertos (mensajes METAR y TAF).

Los puntos amarillos y rojos representan las estaciones disponibles.

Ponga el ratón en el punto deseado para ver el nombre de la estación.

Haga clic para ver las observaciones y los pronósticos meteorológicos.

Para cambiar el mapa : haga clic en los botones verdes con una cruz de color negro para hacer un zoom, en el botón verde con un guión para alejar o en las flechas verdes para mapas adyacentes.


METAR-TAF: